YUL weather

Montreal / Pierre Elliott Trudeau International Airport
Montréal, Quebec, Canada

Public forecast

Using degrees Celsius for public forecast. Weather courtesy of forecast.io.

METAR (pilot weather report)

Retrieved 2017/05/28 23:00 UTC (55 minutes ago):

CYUL 282300Z 15009G15KT 30SM FEW070 FEW200 SCT250 25/07 A2981 RMK AC1CC1CI3 AC TR SLP096 DENSITY ALT 1400FT

TAF (pilot weather forecast)

Retrieved 2017/05/28 21:42 UTC (2 hours ago):

TAF CYUL 282038Z 2821/2918 16008KT P6SM FEW060 BKN250 FM290000 16008KT P6SM SCT080 FM290200 16008KT P6SM BKN060 FM290800 15010KT P6SM BKN060 OVC100 TEMPO 2908/2917 P6SM -SHRA BKN030 OVC060 BECMG 2910/2912 15012G22KT FM291700 15012G22KT P6SM -RA BKN030 OVC060 RMK NXT FCST BY 290000Z